Terminal Aerodrome Forecast
Issued by NWS

Home | Current Version | Previous Version | Text Only | Print | Product List | Glossary On
Versions: 1 2 3 4 5 6 7 8 9 10 11 12 13 14 15 16 17 18 19 20 21 22 23 24 25
875
FTUS42 KFFC 221021 AAB
TAFFTY
TAF AMD
KFTY 221021Z 2210/2306 16005KT 6SM BR FEW040 BKN050
      TEMPO 2211/2214 5SM BR BKN010
     FM221700 19007KT P6SM BKN020 BKN050
     FM222000 20007KT P6SM SCT035 BKN080
     FM230000 14005KT P6SM SCT050 SCT080
     FM230400 12004KT P6SM SCT250=

USA.gov is the U.S. government's official web portal to all federal, state and local government web resources and services.